Contship IVy — 5BES4 — position and weather

sailwx.info

Track history (hours):
 
Tides and Currents Weather Stations Pressure Air Temp Water Temp Dewpoint Dewpoint Depression Visibility Wind Speed Wind Dir Waves Ship Positions

Contship IVy

Last reported at 2018-Feb-20 17:13 UTC. Time now 2018-Feb-20 21:51 UTC.
Position N 39°50' E 018°28'.

Length 180 m; draft 7.4 m.

Type: Ship (hazmat cat A). MMSI: 212267000.

Date/timePositionNaut miles runAvg speedWind from/ knotsBaromVisibWave heightAir tempDewpointWater temp
2018-Feb-20 17:13N 39°50' E 018°28'313.2
2018-Feb-20 17:00N 39°52' E 018°30'612.7
2018-Feb-20 16:30N 39°58' E 018°33'713.0
2018-Feb-20 16:00N 40°04' E 018°36'612.2
2018-Feb-20 15:29N 40°10' E 018°37'  
2018-Feb-16 11:30N 40°01' E 018°34'713.9
2018-Feb-16 11:00N 39°54' E 018°30'17213.5
2018-Feb-15 22:16N 37°51' E 015°55'515.7
2018-Feb-15 21:58N 37°51' E 015°49'715.5
2018-Feb-15 21:30N 37°52' E 015°40'815.4
2018-Feb-15 21:00N 37°58' E 015°34'815.9
2018-Feb-15 20:30N 38°06' E 015°35'815.6
2018-Feb-15 20:00N 38°13' E 015°36'611.7
2018-Feb-15 19:29N 38°18' E 015°41'611.6
2018-Feb-15 19:00N 38°22' E 015°46'713.4
2018-Feb-15 18:29N 38°26' E 015°53'2 0.9
2018-Feb-15 16:33N 38°28' E 015°54'0 0.0
2018-Feb-15 16:27N 38°28' E 015°54'0 0.0
2018-Feb-15 02:33N 38°28' E 015°54'0 0.0
2018-Feb-15 02:21N 38°28' E 015°54'0 0.0
2018-Feb-15 01:57N 38°28' E 015°54'0 0.0
2018-Feb-14 23:27N 38°28' E 015°54'0 0.0
2018-Feb-14 22:51N 38°28' E 015°54'0 0.0
2018-Feb-14 20:27N 38°28' E 015°54'0 0.0
2018-Feb-14 19:57N 38°28' E 015°54'0 0.0
2018-Feb-14 19:27N 38°28' E 015°54'0 0.0
2018-Feb-14 16:46N 38°27' E 015°54'5 4.3
2018-Feb-14 15:41N 38°29' E 015°49'210.5
2018-Feb-14 15:28N 38°31' E 015°47'510.4
2018-Feb-14 15:00N 38°35' E 015°44'1 1.2
2018-Feb-14 14:27N 38°35' E 015°43'1 1.3
2018-Feb-14 13:59N 38°35' E 015°42'1 1.0
2018-Feb-14 13:27N 38°35' E 015°42'1 2.2
2018-Feb-14 12:57N 38°35' E 015°43'3 4.1
2018-Feb-14 12:15N 38°37' E 015°45'0 1.2
2018-Feb-14 11:53N 38°36' E 015°45'1 1.0
2018-Feb-14 11:23N 38°36' E 015°44'0 1.0
2018-Feb-14 10:54N 38°36' E 015°44'0 1.0
2018-Feb-14 10:30N 38°36' E 015°43'1 1.1
2018-Feb-14 10:00N 38°36' E 015°43'1 1.0
2018-Feb-14 09:30N 38°36' E 015°42'0 0.8
2018-Feb-14 08:56N 38°35' E 015°42'0 0.6
2018-Feb-14 08:24N 38°35' E 015°41'0 0.7
2018-Feb-14 08:00N 38°35' E 015°41'1 1.0
2018-Feb-14 07:28N 38°35' E 015°40'0 0.7
2018-Feb-14 07:00N 38°35' E 015°40'3 6.5
2018-Feb-14 06:30N 38°33' E 015°43'2 3.4
2018-Feb-14 05:56N 38°32' E 015°45'3 7.3
2018-Feb-14 05:29N 38°34' E 015°42'4 7.3
2018-Feb-14 04:58N 38°36' E 015°38'4 7.5
2018-Feb-14 04:30N 38°38' E 015°34'0 0.8
2018-Feb-14 04:00N 38°38' E 015°34'3 6.2
2018-Feb-14 03:29N 38°36' E 015°37'3 6.4
2018-Feb-14 02:59N 38°34' E 015°40'3 6.4
2018-Feb-14 02:30N 38°32' E 015°43'3 5.9
2018-Feb-14 01:59N 38°30' E 015°46'3 2.6
2018-Feb-14 00:59N 38°29' E 015°43'4 8.4
2018-Feb-14 00:30N 38°31' E 015°39'4 8.4
2018-Feb-14 00:00N 38°34' E 015°35'4 8.5
2018-Feb-13 23:30N 38°37' E 015°31'4 8.1
2018-Feb-13 23:00N 38°40' E 015°28'1 2.0
2018-Feb-13 22:27N 38°40' E 015°29'3 5.8
2018-Feb-13 21:57N 38°38' E 015°32'3 6.5
2018-Feb-13 21:25N 38°36' E 015°35'2 4.8
2018-Feb-13 20:58N 38°35' E 015°37'3 5.8
2018-Feb-13 20:30N 38°32' E 015°39'2 4.1
2018-Feb-13 20:00N 38°31' E 015°41'1 2.4
2018-Feb-13 19:30N 38°30' E 015°42'1 1.9
2018-Feb-13 19:00N 38°30' E 015°41'1 1.8
2018-Feb-13 18:30N 38°30' E 015°39'1 1.7
2018-Feb-13 17:58N 38°30' E 015°38'1 1.8
2018-Feb-13 17:30N 38°31' E 015°37'1 1.8
2018-Feb-13 17:00N 38°31' E 015°36'1 1.8
2018-Feb-13 16:30N 38°32' E 015°36'1 1.5
2018-Feb-13 15:57N 38°32' E 015°35'1 1.6
2018-Feb-13 15:27N 38°33' E 015°34'1 1.7
2018-Feb-13 14:54N 38°33' E 015°33'1 1.5
2018-Feb-13 14:25N 38°34' E 015°32'1 1.8
2018-Feb-13 14:00N 38°34' E 015°32'1 2.2
2018-Feb-13 13:27N 38°36' E 015°31'3 7.2
2018-Feb-13 12:59N 38°36' E 015°36'510.8
2018-Feb-13 12:30N 38°36' E 015°42'1 1.0
2018-Feb-13 11:53N 38°36' E 015°41'0 1.2
2018-Feb-13 11:30N 38°36' E 015°41'1 1.3
2018-Feb-13 10:54N 38°36' E 015°40'0 1.0
2018-Feb-13 10:26N 38°36' E 015°39'0 1.1
2018-Feb-13 09:58N 38°36' E 015°39'1 1.1
2018-Feb-13 09:30N 38°36' E 015°38'1 1.1
2018-Feb-13 09:00N 38°36' E 015°37'1 1.3
2018-Feb-13 08:30N 38°36' E 015°37'1 1.2
2018-Feb-13 08:00N 38°36' E 015°36'1 1.1
2018-Feb-13 07:30N 38°36' E 015°35'1 1.2
2018-Feb-13 06:56N 38°36' E 015°34'0 1.0
2018-Feb-13 06:30N 38°36' E 015°34'0 1.0
2018-Feb-13 06:00N 38°36' E 015°34'0 0.6
2018-Feb-13 05:26N 38°36' E 015°33'0 0.7
2018-Feb-13 05:00N 38°36' E 015°33'0 0.5
2018-Feb-13 04:30N 38°36' E 015°33'0 0.4
2018-Feb-13 03:59N 38°36' E 015°33'0 0.4
2018-Feb-13 03:29N 38°36' E 015°32'0 0.4
2018-Feb-13 03:00N 38°36' E 015°32'0 0.5
2018-Feb-13 02:30N 38°37' E 015°32'0 0.4
2018-Feb-13 01:56N 38°37' E 015°32'0 0.5
2018-Feb-13 01:29N 38°37' E 015°31'0 0.7
2018-Feb-13 01:00N 38°37' E 015°31'0 0.8
2018-Feb-13 00:30N 38°37' E 015°31'0 0.5
2018-Feb-13 00:00N 38°37' E 015°30'0 0.5
2018-Feb-12 23:28N 38°37' E 015°30'0 0.4
2018-Feb-12 22:57N 38°37' E 015°30'0 0.5
2018-Feb-12 22:30N 38°37' E 015°29'0 0.8
2018-Feb-12 21:58N 38°37' E 015°29'0 0.8
2018-Feb-12 21:29N 38°37' E 015°29'0 0.8
2018-Feb-12 21:00N 38°37' E 015°28'1 1.6
2018-Feb-12 20:29N 38°37' E 015°29'611.9
2018-Feb-12 19:58N 38°36' E 015°36'4 9.3
2018-Feb-12 19:29N 38°34' E 015°42'0 0.8
2018-Feb-12 19:00N 38°34' E 015°42'0 0.7
2018-Feb-12 18:30N 38°34' E 015°41'0 0.7
2018-Feb-12 17:58N 38°34' E 015°41'0 0.7
2018-Feb-12 17:28N 38°34' E 015°40'0 0.7
2018-Feb-12 16:59N 38°34' E 015°40'0 0.7
2018-Feb-12 16:28N 38°34' E 015°39'0 0.8
2018-Feb-12 15:58N 38°34' E 015°39'0 0.9
2018-Feb-12 15:30N 38°34' E 015°38'1 1.1
2018-Feb-12 15:00N 38°34' E 015°38'1 1.1
2018-Feb-12 14:30N 38°34' E 015°37'1 1.0
2018-Feb-12 13:59N 38°35' E 015°36'0 1.0
2018-Feb-12 13:30N 38°35' E 015°36'0 0.7
2018-Feb-12 13:00N 38°35' E 015°36'5 8.2
2018-Feb-12 12:25N 38°34' E 015°41'5 9.4
2018-Feb-12 11:56N 38°31' E 015°46'1 1.1
2018-Feb-12 11:27N 38°31' E 015°46'1 1.0
2018-Feb-12 10:53N 38°31' E 015°45'1 1.1
2018-Feb-12 10:23N 38°31' E 015°44'0 1.1
2018-Feb-12 09:59N 38°31' E 015°44'1 1.0
2018-Feb-12 09:21N 38°31' E 015°43'0 1.0
2018-Feb-12 09:00N 38°31' E 015°42'0 1.0
2018-Feb-12 08:30N 38°31' E 015°42'1 1.0
2018-Feb-12 07:58N 38°31' E 015°41'1 1.1
2018-Feb-12 07:30N 38°31' E 015°41'1 1.2
2018-Feb-12 07:00N 38°32' E 015°40'1 1.3
2018-Feb-12 06:30N 38°32' E 015°39'1 1.3
2018-Feb-12 05:59N 38°32' E 015°38'1 1.1
2018-Feb-12 05:29N 38°32' E 015°38'1 1.1
2018-Feb-12 05:00N 38°33' E 015°37'1 1.3
2018-Feb-12 04:29N 38°33' E 015°36'1 1.2
2018-Feb-12 04:00N 38°33' E 015°36'1 1.2
2018-Feb-12 03:30N 38°33' E 015°35'1 1.1
2018-Feb-12 03:00N 38°33' E 015°34'1 1.1
2018-Feb-12 02:28N 38°34' E 015°34'0 1.0
2018-Feb-12 02:00N 38°34' E 015°33'1 1.1
2018-Feb-12 01:29N 38°35' E 015°33'0 0.7
2018-Feb-12 00:59N 38°35' E 015°32'4 7.5
2018-Feb-12 00:29N 38°32' E 015°34'612.7
2018-Feb-12 00:00N 38°26' E 015°38'713.0
2018-Feb-11 23:30N 38°20' E 015°41'510.4
2018-Feb-11 23:00N 38°15' E 015°39'611.6
2018-Feb-11 22:29N 38°09' E 015°37'612.6
2018-Feb-11 22:00N 38°03' E 015°36'712.3
2018-Feb-11 21:28N 37°57' E 015°36'611.7
2018-Feb-11 20:59N 37°52' E 015°40'613.0
2018-Feb-11 20:29N 37°51' E 015°48'17212.4
2018-Feb-11 06:40N 39°49' E 018°28'213.9
2018-Feb-11 06:30N 39°51' E 018°29'713.8
2018-Feb-11 06:00N 39°58' E 018°33'713.7
2018-Feb-11 05:31N 40°04' E 018°36'  
Track history (hours):
 
Tides and Currents Weather Stations Pressure Air Temp Water Temp Dewpoint Dewpoint Depression Visibility Wind Speed Wind Dir Waves Ship Positions

Contship IVy

Last reported at 2018-Feb-20 17:13 UTC. Time now 2018-Feb-20 21:51 UTC.
Position N 39°50' E 018°28'.

Length 180 m; draft 7.4 m.

Type: Ship (hazmat cat A). MMSI: 212267000.

Date/timePositionNaut miles runAvg speedWind from/ knotsBaromVisibWave heightAir tempDewpointWater temp
2018-Feb-20 17:13N 39°50' E 018°28'313.2
2018-Feb-20 17:00N 39°52' E 018°30'612.7
2018-Feb-20 16:30N 39°58' E 018°33'713.0
2018-Feb-20 16:00N 40°04' E 018°36'612.2
2018-Feb-20 15:29N 40°10' E 018°37'  
2018-Feb-16 11:30N 40°01' E 018°34'713.9
2018-Feb-16 11:00N 39°54' E 018°30'17213.5
2018-Feb-15 22:16N 37°51' E 015°55'515.7
2018-Feb-15 21:58N 37°51' E 015°49'715.5
2018-Feb-15 21:30N 37°52' E 015°40'815.4
2018-Feb-15 21:00N 37°58' E 015°34'815.9
2018-Feb-15 20:30N 38°06' E 015°35'815.6
2018-Feb-15 20:00N 38°13' E 015°36'611.7
2018-Feb-15 19:29N 38°18' E 015°41'611.6
2018-Feb-15 19:00N 38°22' E 015°46'713.4
2018-Feb-15 18:29N 38°26' E 015°53'2 0.9
2018-Feb-15 16:33N 38°28' E 015°54'0 0.0
2018-Feb-15 16:27N 38°28' E 015°54'0 0.0
2018-Feb-15 02:33N 38°28' E 015°54'0 0.0
2018-Feb-15 02:21N 38°28' E 015°54'0 0.0
2018-Feb-15 01:57N 38°28' E 015°54'0 0.0
2018-Feb-14 23:27N 38°28' E 015°54'0 0.0
2018-Feb-14 22:51N 38°28' E 015°54'0 0.0
2018-Feb-14 20:27N 38°28' E 015°54'0 0.0
2018-Feb-14 19:57N 38°28' E 015°54'0 0.0
2018-Feb-14 19:27N 38°28' E 015°54'0 0.0
2018-Feb-14 16:46N 38°27' E 015°54'5 4.3
2018-Feb-14 15:41N 38°29' E 015°49'210.5
2018-Feb-14 15:28N 38°31' E 015°47'510.4
2018-Feb-14 15:00N 38°35' E 015°44'1 1.2
2018-Feb-14 14:27N 38°35' E 015°43'1 1.3
2018-Feb-14 13:59N 38°35' E 015°42'1 1.0
2018-Feb-14 13:27N 38°35' E 015°42'1 2.2
2018-Feb-14 12:57N 38°35' E 015°43'3 4.1
2018-Feb-14 12:15N 38°37' E 015°45'0 1.2
2018-Feb-14 11:53N 38°36' E 015°45'1 1.0
2018-Feb-14 11:23N 38°36' E 015°44'0 1.0
2018-Feb-14 10:54N 38°36' E 015°44'0 1.0
2018-Feb-14 10:30N 38°36' E 015°43'1 1.1
2018-Feb-14 10:00N 38°36' E 015°43'1 1.0
2018-Feb-14 09:30N 38°36' E 015°42'0 0.8
2018-Feb-14 08:56N 38°35' E 015°42'0 0.6
2018-Feb-14 08:24N 38°35' E 015°41'0 0.7
2018-Feb-14 08:00N 38°35' E 015°41'1 1.0
2018-Feb-14 07:28N 38°35' E 015°40'0 0.7
2018-Feb-14 07:00N 38°35' E 015°40'3 6.5
2018-Feb-14 06:30N 38°33' E 015°43'2 3.4
2018-Feb-14 05:56N 38°32' E 015°45'3 7.3
2018-Feb-14 05:29N 38°34' E 015°42'4 7.3
2018-Feb-14 04:58N 38°36' E 015°38'4 7.5
2018-Feb-14 04:30N 38°38' E 015°34'0 0.8
2018-Feb-14 04:00N 38°38' E 015°34'3 6.2
2018-Feb-14 03:29N 38°36' E 015°37'3 6.4
2018-Feb-14 02:59N 38°34' E 015°40'3 6.4
2018-Feb-14 02:30N 38°32' E 015°43'3 5.9
2018-Feb-14 01:59N 38°30' E 015°46'3 2.6
2018-Feb-14 00:59N 38°29' E 015°43'4 8.4
2018-Feb-14 00:30N 38°31' E 015°39'4 8.4
2018-Feb-14 00:00N 38°34' E 015°35'4 8.5
2018-Feb-13 23:30N 38°37' E 015°31'4 8.1
2018-Feb-13 23:00N 38°40' E 015°28'1 2.0
2018-Feb-13 22:27N 38°40' E 015°29'3 5.8
2018-Feb-13 21:57N 38°38' E 015°32'3 6.5
2018-Feb-13 21:25N 38°36' E 015°35'2 4.8
2018-Feb-13 20:58N 38°35' E 015°37'3 5.8
2018-Feb-13 20:30N 38°32' E 015°39'2 4.1
2018-Feb-13 20:00N 38°31' E 015°41'1 2.4
2018-Feb-13 19:30N 38°30' E 015°42'1 1.9
2018-Feb-13 19:00N 38°30' E 015°41'1 1.8
2018-Feb-13 18:30N 38°30' E 015°39'1 1.7
2018-Feb-13 17:58N 38°30' E 015°38'1 1.8
2018-Feb-13 17:30N 38°31' E 015°37'1 1.8
2018-Feb-13 17:00N 38°31' E 015°36'1 1.8
2018-Feb-13 16:30N 38°32' E 015°36'1 1.5
2018-Feb-13 15:57N 38°32' E 015°35'1 1.6
2018-Feb-13 15:27N 38°33' E 015°34'1 1.7
2018-Feb-13 14:54N 38°33' E 015°33'1 1.5
2018-Feb-13 14:25N 38°34' E 015°32'1 1.8
2018-Feb-13 14:00N 38°34' E 015°32'1 2.2
2018-Feb-13 13:27N 38°36' E 015°31'3 7.2
2018-Feb-13 12:59N 38°36' E 015°36'510.8
2018-Feb-13 12:30N 38°36' E 015°42'1 1.0
2018-Feb-13 11:53N 38°36' E 015°41'0 1.2
2018-Feb-13 11:30N 38°36' E 015°41'1 1.3
2018-Feb-13 10:54N 38°36' E 015°40'0 1.0
2018-Feb-13 10:26N 38°36' E 015°39'0 1.1
2018-Feb-13 09:58N 38°36' E 015°39'1 1.1
2018-Feb-13 09:30N 38°36' E 015°38'1 1.1
2018-Feb-13 09:00N 38°36' E 015°37'1 1.3
2018-Feb-13 08:30N 38°36' E 015°37'1 1.2
2018-Feb-13 08:00N 38°36' E 015°36'1 1.1
2018-Feb-13 07:30N 38°36' E 015°35'1 1.2
2018-Feb-13 06:56N 38°36' E 015°34'0 1.0
2018-Feb-13 06:30N 38°36' E 015°34'0 1.0
2018-Feb-13 06:00N 38°36' E 015°34'0 0.6
2018-Feb-13 05:26N 38°36' E 015°33'0 0.7
2018-Feb-13 05:00N 38°36' E 015°33'0 0.5
2018-Feb-13 04:30N 38°36' E 015°33'0 0.4
2018-Feb-13 03:59N 38°36' E 015°33'0 0.4
2018-Feb-13 03:29N 38°36' E 015°32'0 0.4
2018-Feb-13 03:00N 38°36' E 015°32'0 0.5
2018-Feb-13 02:30N 38°37' E 015°32'0 0.4
2018-Feb-13 01:56N 38°37' E 015°32'0 0.5
2018-Feb-13 01:29N 38°37' E 015°31'0 0.7
2018-Feb-13 01:00N 38°37' E 015°31'0 0.8
2018-Feb-13 00:30N 38°37' E 015°31'0 0.5
2018-Feb-13 00:00N 38°37' E 015°30'0 0.5
2018-Feb-12 23:28N 38°37' E 015°30'0 0.4
2018-Feb-12 22:57N 38°37' E 015°30'0 0.5
2018-Feb-12 22:30N 38°37' E 015°29'0 0.8
2018-Feb-12 21:58N 38°37' E 015°29'0 0.8
2018-Feb-12 21:29N 38°37' E 015°29'0 0.8
2018-Feb-12 21:00N 38°37' E 015°28'1 1.6
2018-Feb-12 20:29N 38°37' E 015°29'611.9
2018-Feb-12 19:58N 38°36' E 015°36'4 9.3
2018-Feb-12 19:29N 38°34' E 015°42'0 0.8
2018-Feb-12 19:00N 38°34' E 015°42'0 0.7
2018-Feb-12 18:30N 38°34' E 015°41'0 0.7
2018-Feb-12 17:58N 38°34' E 015°41'0 0.7
2018-Feb-12 17:28N 38°34' E 015°40'0 0.7
2018-Feb-12 16:59N 38°34' E 015°40'0 0.7
2018-Feb-12 16:28N 38°34' E 015°39'0 0.8
2018-Feb-12 15:58N 38°34' E 015°39'0 0.9
2018-Feb-12 15:30N 38°34' E 015°38'1 1.1
2018-Feb-12 15:00N 38°34' E 015°38'1 1.1
2018-Feb-12 14:30N 38°34' E 015°37'1 1.0
2018-Feb-12 13:59N 38°35' E 015°36'0 1.0
2018-Feb-12 13:30N 38°35' E 015°36'0 0.7
2018-Feb-12 13:00N 38°35' E 015°36'5 8.2
2018-Feb-12 12:25N 38°34' E 015°41'5 9.4
2018-Feb-12 11:56N 38°31' E 015°46'1 1.1
2018-Feb-12 11:27N 38°31' E 015°46'1 1.0
2018-Feb-12 10:53N 38°31' E 015°45'1 1.1
2018-Feb-12 10:23N 38°31' E 015°44'0 1.1
2018-Feb-12 09:59N 38°31' E 015°44'1 1.0
2018-Feb-12 09:21N 38°31' E 015°43'0 1.0
2018-Feb-12 09:00N 38°31' E 015°42'0 1.0
2018-Feb-12 08:30N 38°31' E 015°42'1 1.0
2018-Feb-12 07:58N 38°31' E 015°41'1 1.1
2018-Feb-12 07:30N 38°31' E 015°41'1 1.2
2018-Feb-12 07:00N 38°32' E 015°40'1 1.3
2018-Feb-12 06:30N 38°32' E 015°39'1 1.3
2018-Feb-12 05:59N 38°32' E 015°38'1 1.1
2018-Feb-12 05:29N 38°32' E 015°38'1 1.1
2018-Feb-12 05:00N 38°33' E 015°37'1 1.3
2018-Feb-12 04:29N 38°33' E 015°36'1 1.2
2018-Feb-12 04:00N 38°33' E 015°36'1 1.2
2018-Feb-12 03:30N 38°33' E 015°35'1 1.1
2018-Feb-12 03:00N 38°33' E 015°34'1 1.1
2018-Feb-12 02:28N 38°34' E 015°34'0 1.0
2018-Feb-12 02:00N 38°34' E 015°33'1 1.1
2018-Feb-12 01:29N 38°35' E 015°33'0 0.7
2018-Feb-12 00:59N 38°35' E 015°32'4 7.5
2018-Feb-12 00:29N 38°32' E 015°34'612.7
2018-Feb-12 00:00N 38°26' E 015°38'713.0
2018-Feb-11 23:30N 38°20' E 015°41'510.4
2018-Feb-11 23:00N 38°15' E 015°39'611.6
2018-Feb-11 22:29N 38°09' E 015°37'612.6
2018-Feb-11 22:00N 38°03' E 015°36'712.3
2018-Feb-11 21:28N 37°57' E 015°36'611.7
2018-Feb-11 20:59N 37°52' E 015°40'613.0
2018-Feb-11 20:29N 37°51' E 015°48'17212.4
2018-Feb-11 06:40N 39°49' E 018°28'213.9
2018-Feb-11 06:30N 39°51' E 018°29'713.8
2018-Feb-11 06:00N 39°58' E 018°33'713.7
2018-Feb-11 05:31N 40°04' E 018°36'  

Dump ship's entire track history